Date,TemperatureHighF,TemperatureAvgF,TemperatureLowF,DewpointHighF,DewpointAvgF,DewpointLowF,HumidityHigh,HumidityAvg,HumidityLow,PressureMaxIn,PressureMinIn,WindSpeedMaxMPH,WindSpeedAvgMPH,GustSpeedMaxMPH,PrecipitationSumIn
2013-1-1,37.8,31.9,25.3,36.5,30.5,23.6,95,95,93,30.27,30.03,9,1,0,0.01
2013-1-2,35.1,27.0,22.0,26.8,22.1,19.3,93,83,59,30.31,30.20,6,0,0,0.00
2013-1-3,43.0,30.0,19.7,30.9,23.9,17.5,93,80,52,30.47,30.29,6,0,0,0.00
2013-1-4,47.4,34.1,21.2,28.6,24.7,18.7,92,71,42,30.50,30.34,7,0,0,0.00
2013-1-5,42.7,37.0,28.5,35.2,30.4,22.5,89,77,71,30.34,30.18,11,1,0,0.00
2013-1-6,37.4,30.3,24.5,31.9,24.9,19.5,93,81,52,30.38,30.24,10,0,0,0.00
2013-1-7,51.9,36.8,23.0,31.0,25.4,19.4,89,66,40,30.37,30.12,12,1,0,0.00
2013-1-8,58.7,42.9,27.8,45.4,35.1,23.1,94,75,54,30.18,30.02,11,1,0,0.19
2013-1-9,53.7,49.5,45.6,47.8,44.3,38.9,96,83,61,30.34,30.18,14,1,0,0.05
2013-1-10,56.2,50.1,45.5,53.7,47.2,40.3,95,90,68,30.19,29.79,12,1,0,0.14
2013-1-11,65.9,55.0,45.4,47.7,45.8,43.2,93,73,47,29.86,29.70,16,3,0,0.00
2013-1-12,57.8,44.5,29.8,51.3,38.4,28.0,93,81,50,29.96,29.77,14,2,0,0.33
2013-1-13,29.7,23.6,14.8,27.9,20.2,12.1,93,87,77,30.40,29.96,13,2,0,0.00
2013-1-14,34.9,21.7,11.6,19.0,14.4,9.0,91,75,45,30.52,30.36,7,0,0,0.00
2013-1-15,34.4,24.7,15.4,23.2,17.5,12.5,90,75,51,30.37,30.19,6,0,0,0.00
2013-1-16,42.6,28.1,14.1,23.0,18.6,11.5,92,70,41,30.24,30.12,8,0,0,0.00
2013-1-17,47.7,35.2,25.9,33.8,26.9,18.8,86,72,50,30.50,30.21,10,1,0,0.00
2013-1-18,56.9,39.6,22.9,33.8,27.8,20.4,92,66,35,30.52,30.19,11,2,0,0.00
2013-1-19,62.3,49.0,38.7,39.1,33.6,27.6,80,56,40,30.19,30.04,14,3,0,0.00
2013-1-20,60.8,42.9,29.7,37.6,29.7,20.2,88,62,39,30.27,30.10,11,1,0,0.00
2013-1-21,39.2,28.4,21.0,21.1,16.7,14.5,76,62,41,30.41,30.26,7,1,0,0.00
2013-1-22,46.7,31.4,19.7,27.8,21.2,14.8,85,67,46,30.35,30.22,9,0,0,0.00
2013-1-23,61.3,41.8,26.4,44.9,33.9,21.8,92,75,52,30.27,30.13,8,1,0,0.00
2013-1-24,43.3,37.9,33.1,34.9,23.4,18.0,78,56,44,30.33,30.12,13,1,0,0.00
2013-1-25,50.7,37.7,30.5,35.6,30.6,27.2,93,77,51,30.26,30.12,6,0,0,0.00
2013-1-26,60.6,44.8,31.0,30.5,26.4,22.0,86,53,24,30.27,30.11,11,1,0,0.00
2013-1-27,59.4,53.6,46.5,55.3,47.4,31.0,89,80,53,30.11,29.89,16,3,0,0.00
2013-1-28,71.8,66.2,59.0,61.9,60.2,55.5,89,81,69,29.93,29.76,15,5,0,0.00
2013-1-29,68.3,60.3,46.8,62.9,56.6,45.5,95,88,79,29.75,29.43,21,4,0,1.87
2013-1-30,47.0,33.7,24.2,45.7,29.9,20.4,95,86,76,30.09,29.47,16,4,0,0.01
2013-1-31,48.2,30.5,19.5,31.4,22.9,12.1,92,75,50,30.45,30.05,14,2,0,0.00